sensor_id;sensor_type;location;lat;lon;timestamp;P1;durP1;ratioP1;P2;durP2;ratioP2
3565;SDS011;1797;51.844;7.684;2023-04-06T00:01:41;4.00;;;1.80;;
3565;SDS011;1797;51.844;7.684;2023-04-06T00:04:07;1.40;;;0.70;;
3565;SDS011;1797;51.844;7.684;2023-04-06T00:06:33;1.02;;;0.93;;
3565;SDS011;1797;51.844;7.684;2023-04-06T00:08:59;1.25;;;1.15;;
3565;SDS011;1797;51.844;7.684;2023-04-06T00:11:25;4.00;;;2.25;;
3565;SDS011;1797;51.844;7.684;2023-04-06T00:13:51;1.00;;;0.93;;
3565;SDS011;1797;51.844;7.684;2023-04-06T00:16:17;0.98;;;0.98;;
3565;SDS011;1797;51.844;7.684;2023-04-06T00:18:43;1.40;;;1.00;;
3565;SDS011;1797;51.844;7.684;2023-04-06T00:21:11;2.00;;;1.17;;
3565;SDS011;1797;51.844;7.684;2023-04-06T00:23:38;0.60;;;0.60;;
3565;SDS011;1797;51.844;7.684;2023-04-06T00:26:03;0.90;;;0.77;;
3565;SDS011;1797;51.844;7.684;2023-04-06T00:28:29;2.20;;;1.50;;
3565;SDS011;1797;51.844;7.684;2023-04-06T00:30:55;0.50;;;0.50;;
3565;SDS011;1797;51.844;7.684;2023-04-06T00:33:21;1.25;;;1.25;;
3565;SDS011;1797;51.844;7.684;2023-04-06T00:35:47;1.40;;;1.30;;
3565;SDS011;1797;51.844;7.684;2023-04-06T00:38:13;2.60;;;2.40;;
3565;SDS011;1797;51.844;7.684;2023-04-06T00:40:39;1.42;;;1.33;;
3565;SDS011;1797;51.844;7.684;2023-04-06T00:43:08;2.60;;;1.40;;
3565;SDS011;1797;51.844;7.684;2023-04-06T00:45:34;0.90;;;0.90;;
3565;SDS011;1797;51.844;7.684;2023-04-06T00:48:00;2.90;;;1.60;;
3565;SDS011;1797;51.844;7.684;2023-04-06T00:50:26;1.80;;;1.70;;
3565;SDS011;1797;51.844;7.684;2023-04-06T00:52:52;0.60;;;0.60;;
3565;SDS011;1797;51.844;7.684;2023-04-06T00:55:19;1.17;;;1.17;;
3565;SDS011;1797;51.844;7.684;2023-04-06T00:57:45;0.90;;;0.90;;
3565;SDS011;1797;51.844;7.684;2023-04-06T01:00:11;0.70;;;0.70;;
3565;SDS011;1797;51.844;7.684;2023-04-06T01:02:37;2.10;;;1.95;;
3565;SDS011;1797;51.844;7.684;2023-04-06T01:05:03;1.50;;;1.40;;
3565;SDS011;1797;51.844;7.684;2023-04-06T01:07:29;3.60;;;2.55;;
3565;SDS011;1797;51.844;7.684;2023-04-06T01:09:55;5.20;;;1.88;;
3565;SDS011;1797;51.844;7.684;2023-04-06T01:12:20;2.20;;;1.30;;
3565;SDS011;1797;51.844;7.684;2023-04-06T01:14:46;2.65;;;1.23;;
3565;SDS011;1797;51.844;7.684;2023-04-06T01:17:12;1.70;;;1.60;;
3565;SDS011;1797;51.844;7.684;2023-04-06T01:19:37;0.80;;;0.80;;
3565;SDS011;1797;51.844;7.684;2023-04-06T01:22:05;7.25;;;2.05;;
3565;SDS011;1797;51.844;7.684;2023-04-06T01:24:31;1.70;;;1.60;;
3565;SDS011;1797;51.844;7.684;2023-04-06T01:26:57;0.73;;;0.70;;
3565;SDS011;1797;51.844;7.684;2023-04-06T01:29:23;2.70;;;1.40;;
3565;SDS011;1797;51.844;7.684;2023-04-06T01:31:48;0.80;;;0.77;;
3565;SDS011;1797;51.844;7.684;2023-04-06T01:34:14;0.85;;;0.55;;
3565;SDS011;1797;51.844;7.684;2023-04-06T01:36:40;3.90;;;2.60;;
3565;SDS011;1797;51.844;7.684;2023-04-06T01:39:06;2.30;;;1.10;;
3565;SDS011;1797;51.844;7.684;2023-04-06T01:41:31;1.85;;;1.75;;
3565;SDS011;1797;51.844;7.684;2023-04-06T01:43:57;6.00;;;1.50;;
3565;SDS011;1797;51.844;7.684;2023-04-06T01:46:23;3.60;;;1.50;;
3565;SDS011;1797;51.844;7.684;2023-04-06T01:48:49;0.80;;;0.80;;
3565;SDS011;1797;51.844;7.684;2023-04-06T01:51:15;2.00;;;1.13;;
3565;SDS011;1797;51.844;7.684;2023-04-06T01:53:40;9.23;;;2.40;;
3565;SDS011;1797;51.844;7.684;2023-04-06T01:56:06;1.27;;;1.17;;
3565;SDS011;1797;51.844;7.684;2023-04-06T01:58:32;1.20;;;1.20;;
3565;SDS011;1797;51.844;7.684;2023-04-06T02:00:57;2.20;;;2.00;;
3565;SDS011;1797;51.844;7.684;2023-04-06T02:03:23;8.50;;;1.70;;
3565;SDS011;1797;51.844;7.684;2023-04-06T02:05:48;4.72;;;2.40;;
3565;SDS011;1797;51.844;7.684;2023-04-06T02:08:14;4.05;;;1.25;;
3565;SDS011;1797;51.844;7.684;2023-04-06T02:10:39;3.20;;;1.50;;
3565;SDS011;1797;51.844;7.684;2023-04-06T02:13:05;1.50;;;1.40;;
3565;SDS011;1797;51.844;7.684;2023-04-06T02:15:31;3.40;;;2.00;;
3565;SDS011;1797;51.844;7.684;2023-04-06T02:17:57;2.10;;;1.57;;
3565;SDS011;1797;51.844;7.684;2023-04-06T02:20:23;1.13;;;1.03;;
3565;SDS011;1797;51.844;7.684;2023-04-06T02:22:49;1.42;;;1.42;;
3565;SDS011;1797;51.844;7.684;2023-04-06T02:25:15;2.13;;;1.43;;
3565;SDS011;1797;51.844;7.684;2023-04-06T02:27:41;1.88;;;1.77;;
3565;SDS011;1797;51.844;7.684;2023-04-06T02:30:06;1.47;;;1.30;;
3565;SDS011;1797;51.844;7.684;2023-04-06T02:32:32;1.50;;;1.40;;
3565;SDS011;1797;51.844;7.684;2023-04-06T02:34:58;1.92;;;1.67;;
3565;SDS011;1797;51.844;7.684;2023-04-06T02:37:23;1.47;;;1.37;;
3565;SDS011;1797;51.844;7.684;2023-04-06T02:39:49;1.50;;;1.00;;
3565;SDS011;1797;51.844;7.684;2023-04-06T02:42:15;4.30;;;2.07;;
3565;SDS011;1797;51.844;7.684;2023-04-06T02:44:41;1.48;;;1.40;;
3565;SDS011;1797;51.844;7.684;2023-04-06T02:47:07;0.73;;;0.73;;
3565;SDS011;1797;51.844;7.684;2023-04-06T02:49:33;2.47;;;1.48;;
3565;SDS011;1797;51.844;7.684;2023-04-06T02:51:59;3.60;;;1.97;;
3565;SDS011;1797;51.844;7.684;2023-04-06T02:54:25;3.20;;;1.17;;
3565;SDS011;1797;51.844;7.684;2023-04-06T02:56:50;2.10;;;1.63;;
3565;SDS011;1797;51.844;7.684;2023-04-06T02:59:16;2.40;;;2.20;;
3565;SDS011;1797;51.844;7.684;2023-04-06T03:01:41;1.83;;;1.73;;
3565;SDS011;1797;51.844;7.684;2023-04-06T03:04:07;6.88;;;1.30;;
3565;SDS011;1797;51.844;7.684;2023-04-06T03:06:33;1.83;;;1.42;;
3565;SDS011;1797;51.844;7.684;2023-04-06T03:08:58;1.80;;;1.70;;
3565;SDS011;1797;51.844;7.684;2023-04-06T03:11:24;2.58;;;1.70;;
3565;SDS011;1797;51.844;7.684;2023-04-06T03:13:51;3.20;;;1.17;;
3565;SDS011;1797;51.844;7.684;2023-04-06T03:16:16;1.00;;;1.00;;
3565;SDS011;1797;51.844;7.684;2023-04-06T03:18:42;2.57;;;1.50;;
3565;SDS011;1797;51.844;7.684;2023-04-06T03:21:09;6.80;;;2.70;;
3565;SDS011;1797;51.844;7.684;2023-04-06T03:23:35;1.65;;;1.55;;
3565;SDS011;1797;51.844;7.684;2023-04-06T03:26:01;1.20;;;1.10;;
3565;SDS011;1797;51.844;7.684;2023-04-06T03:28:27;2.10;;;1.50;;
3565;SDS011;1797;51.844;7.684;2023-04-06T03:30:53;0.60;;;0.60;;
3565;SDS011;1797;51.844;7.684;2023-04-06T03:33:18;0.70;;;0.70;;
3565;SDS011;1797;51.844;7.684;2023-04-06T03:35:44;3.80;;;2.60;;
3565;SDS011;1797;51.844;7.684;2023-04-06T03:38:09;3.70;;;1.13;;
3565;SDS011;1797;51.844;7.684;2023-04-06T03:40:35;1.13;;;1.13;;
3565;SDS011;1797;51.844;7.684;2023-04-06T03:43:01;2.03;;;1.67;;
3565;SDS011;1797;51.844;7.684;2023-04-06T03:45:26;4.70;;;2.80;;
3565;SDS011;1797;51.844;7.684;2023-04-06T03:47:52;11.20;;;1.30;;
3565;SDS011;1797;51.844;7.684;2023-04-06T03:50:17;3.53;;;2.17;;
3565;SDS011;1797;51.844;7.684;2023-04-06T03:52:43;1.65;;;1.55;;
3565;SDS011;1797;51.844;7.684;2023-04-06T03:55:08;9.50;;;2.10;;
3565;SDS011;1797;51.844;7.684;2023-04-06T03:57:34;1.30;;;1.20;;
3565;SDS011;1797;51.844;7.684;2023-04-06T04:00:00;1.20;;;1.10;;
3565;SDS011;1797;51.844;7.684;2023-04-06T04:02:25;4.10;;;1.40;;
3565;SDS011;1797;51.844;7.684;2023-04-06T04:04:51;1.38;;;1.17;;
3565;SDS011;1797;51.844;7.684;2023-04-06T04:07:17;2.20;;;1.83;;
3565;SDS011;1797;51.844;7.684;2023-04-06T04:09:42;1.38;;;1.25;;
3565;SDS011;1797;51.844;7.684;2023-04-06T04:12:08;1.00;;;1.00;;
3565;SDS011;1797;51.844;7.684;2023-04-06T04:14:33;1.20;;;1.10;;
3565;SDS011;1797;51.844;7.684;2023-04-06T04:16:59;1.00;;;1.00;;
3565;SDS011;1797;51.844;7.684;2023-04-06T04:19:25;2.20;;;1.07;;
3565;SDS011;1797;51.844;7.684;2023-04-06T04:21:50;5.40;;;1.90;;
3565;SDS011;1797;51.844;7.684;2023-04-06T04:24:16;1.50;;;1.40;;
3565;SDS011;1797;51.844;7.684;2023-04-06T04:26:41;0.50;;;0.50;;
3565;SDS011;1797;51.844;7.684;2023-04-06T04:29:07;5.70;;;1.60;;
3565;SDS011;1797;51.844;7.684;2023-04-06T04:31:33;1.77;;;1.67;;
3565;SDS011;1797;51.844;7.684;2023-04-06T04:33:59;2.17;;;2.07;;
3565;SDS011;1797;51.844;7.684;2023-04-06T04:36:25;3.10;;;1.33;;
3565;SDS011;1797;51.844;7.684;2023-04-06T04:38:51;14.53;;;2.17;;
3565;SDS011;1797;51.844;7.684;2023-04-06T04:41:17;15.07;;;2.65;;
3565;SDS011;1797;51.844;7.684;2023-04-06T04:43:42;0.98;;;0.98;;
3565;SDS011;1797;51.844;7.684;2023-04-06T04:46:09;0.80;;;0.80;;
3565;SDS011;1797;51.844;7.684;2023-04-06T04:48:34;2.53;;;1.75;;
3565;SDS011;1797;51.844;7.684;2023-04-06T04:51:00;2.50;;;1.70;;
3565;SDS011;1797;51.844;7.684;2023-04-06T04:53:26;1.40;;;1.10;;
3565;SDS011;1797;51.844;7.684;2023-04-06T04:55:52;1.45;;;1.10;;
3565;SDS011;1797;51.844;7.684;2023-04-06T04:58:17;1.60;;;1.30;;
3565;SDS011;1797;51.844;7.684;2023-04-06T05:00:44;1.00;;;0.90;;
3565;SDS011;1797;51.844;7.684;2023-04-06T05:03:21;1.50;;;1.40;;
3565;SDS011;1797;51.844;7.684;2023-04-06T05:05:48;0.50;;;0.50;;
3565;SDS011;1797;51.844;7.684;2023-04-06T05:08:14;0.80;;;0.80;;
3565;SDS011;1797;51.844;7.684;2023-04-06T05:10:40;0.60;;;0.60;;
3565;SDS011;1797;51.844;7.684;2023-04-06T05:13:06;0.80;;;0.80;;
3565;SDS011;1797;51.844;7.684;2023-04-06T05:15:32;3.95;;;2.47;;
3565;SDS011;1797;51.844;7.684;2023-04-06T05:18:00;3.97;;;1.70;;
3565;SDS011;1797;51.844;7.684;2023-04-06T05:20:26;1.03;;;0.93;;
3565;SDS011;1797;51.844;7.684;2023-04-06T05:22:52;1.55;;;1.25;;
3565;SDS011;1797;51.844;7.684;2023-04-06T05:25:18;0.60;;;0.60;;
3565;SDS011;1797;51.844;7.684;2023-04-06T05:27:44;4.57;;;1.83;;
3565;SDS011;1797;51.844;7.684;2023-04-06T05:30:10;1.30;;;1.20;;
3565;SDS011;1797;51.844;7.684;2023-04-06T05:32:36;1.33;;;1.23;;
3565;SDS011;1797;51.844;7.684;2023-04-06T05:35:01;2.63;;;1.57;;
3565;SDS011;1797;51.844;7.684;2023-04-06T05:37:27;0.40;;;0.40;;
3565;SDS011;1797;51.844;7.684;2023-04-06T05:39:53;2.00;;;1.10;;
3565;SDS011;1797;51.844;7.684;2023-04-06T05:42:18;1.20;;;1.15;;
3565;SDS011;1797;51.844;7.684;2023-04-06T05:44:44;6.50;;;2.80;;
3565;SDS011;1797;51.844;7.684;2023-04-06T05:47:10;5.00;;;2.00;;
3565;SDS011;1797;51.844;7.684;2023-04-06T05:49:36;8.00;;;2.00;;
3565;SDS011;1797;51.844;7.684;2023-04-06T05:52:01;1.88;;;1.73;;
3565;SDS011;1797;51.844;7.684;2023-04-06T05:54:27;1.87;;;1.70;;
3565;SDS011;1797;51.844;7.684;2023-04-06T05:56:53;1.67;;;1.58;;
3565;SDS011;1797;51.844;7.684;2023-04-06T05:59:19;4.30;;;1.80;;
3565;SDS011;1797;51.844;7.684;2023-04-06T06:01:45;9.10;;;2.20;;
3565;SDS011;1797;51.844;7.684;2023-04-06T06:04:11;2.10;;;1.90;;
3565;SDS011;1797;51.844;7.684;2023-04-06T06:06:36;3.20;;;1.85;;
3565;SDS011;1797;51.844;7.684;2023-04-06T06:09:02;0.60;;;0.60;;
3565;SDS011;1797;51.844;7.684;2023-04-06T06:11:28;3.90;;;1.67;;
3565;SDS011;1797;51.844;7.684;2023-04-06T06:13:55;6.70;;;2.10;;
3565;SDS011;1797;51.844;7.684;2023-04-06T06:16:20;2.10;;;2.00;;
3565;SDS011;1797;51.844;7.684;2023-04-06T06:18:46;3.80;;;2.27;;
3565;SDS011;1797;51.844;7.684;2023-04-06T06:21:12;3.70;;;2.20;;
3565;SDS011;1797;51.844;7.684;2023-04-06T06:23:38;4.40;;;2.10;;
3565;SDS011;1797;51.844;7.684;2023-04-06T06:26:04;2.30;;;2.10;;
3565;SDS011;1797;51.844;7.684;2023-04-06T06:28:30;1.50;;;1.40;;
3565;SDS011;1797;51.844;7.684;2023-04-06T06:30:56;1.60;;;1.50;;
3565;SDS011;1797;51.844;7.684;2023-04-06T06:33:21;1.90;;;1.80;;
3565;SDS011;1797;51.844;7.684;2023-04-06T06:35:47;8.35;;;1.77;;
3565;SDS011;1797;51.844;7.684;2023-04-06T06:38:13;5.70;;;2.42;;
3565;SDS011;1797;51.844;7.684;2023-04-06T06:40:39;6.40;;;2.40;;
3565;SDS011;1797;51.844;7.684;2023-04-06T06:43:05;2.47;;;1.75;;
3565;SDS011;1797;51.844;7.684;2023-04-06T06:45:31;3.60;;;2.10;;
3565;SDS011;1797;51.844;7.684;2023-04-06T06:47:57;1.60;;;1.30;;
3565;SDS011;1797;51.844;7.684;2023-04-06T06:50:22;1.80;;;1.70;;
3565;SDS011;1797;51.844;7.684;2023-04-06T06:52:48;1.25;;;1.13;;
3565;SDS011;1797;51.844;7.684;2023-04-06T06:55:14;1.35;;;0.95;;
3565;SDS011;1797;51.844;7.684;2023-04-06T06:57:40;1.40;;;1.17;;
3565;SDS011;1797;51.844;7.684;2023-04-06T07:00:07;2.20;;;1.80;;
3565;SDS011;1797;51.844;7.684;2023-04-06T07:02:34;2.20;;;2.03;;
3565;SDS011;1797;51.844;7.684;2023-04-06T07:05:03;1.50;;;1.23;;
3565;SDS011;1797;51.844;7.684;2023-04-06T07:07:29;6.32;;;1.38;;
3565;SDS011;1797;51.844;7.684;2023-04-06T07:09:56;0.45;;;0.45;;
3565;SDS011;1797;51.844;7.684;2023-04-06T07:12:22;3.80;;;1.80;;
3565;SDS011;1797;51.844;7.684;2023-04-06T07:14:47;3.70;;;1.10;;
3565;SDS011;1797;51.844;7.684;2023-04-06T07:17:13;1.17;;;1.07;;
3565;SDS011;1797;51.844;7.684;2023-04-06T07:19:38;1.90;;;1.80;;
3565;SDS011;1797;51.844;7.684;2023-04-06T07:22:04;1.80;;;1.70;;
3565;SDS011;1797;51.844;7.684;2023-04-06T07:24:30;0.60;;;0.60;;
3565;SDS011;1797;51.844;7.684;2023-04-06T07:26:55;1.90;;;1.23;;
3565;SDS011;1797;51.844;7.684;2023-04-06T07:29:23;2.10;;;1.70;;
3565;SDS011;1797;51.844;7.684;2023-04-06T07:31:49;1.70;;;1.60;;
3565;SDS011;1797;51.844;7.684;2023-04-06T07:34:15;1.95;;;1.25;;
3565;SDS011;1797;51.844;7.684;2023-04-06T07:36:40;1.50;;;1.40;;
3565;SDS011;1797;51.844;7.684;2023-04-06T07:39:06;5.33;;;2.23;;
3565;SDS011;1797;51.844;7.684;2023-04-06T07:41:32;2.33;;;0.90;;
3565;SDS011;1797;51.844;7.684;2023-04-06T07:43:57;4.40;;;2.70;;
3565;SDS011;1797;51.844;7.684;2023-04-06T07:46:23;1.92;;;1.17;;
3565;SDS011;1797;51.844;7.684;2023-04-06T07:48:49;2.33;;;2.13;;
3565;SDS011;1797;51.844;7.684;2023-04-06T07:51:16;1.27;;;1.27;;
3565;SDS011;1797;51.844;7.684;2023-04-06T07:53:43;2.10;;;1.90;;
3565;SDS011;1797;51.844;7.684;2023-04-06T07:56:09;1.30;;;0.90;;
3565;SDS011;1797;51.844;7.684;2023-04-06T07:58:35;5.50;;;2.50;;
3565;SDS011;1797;51.844;7.684;2023-04-06T08:01:01;2.90;;;1.20;;
3565;SDS011;1797;51.844;7.684;2023-04-06T08:03:27;2.47;;;2.08;;
3565;SDS011;1797;51.844;7.684;2023-04-06T08:05:52;4.20;;;1.90;;
3565;SDS011;1797;51.844;7.684;2023-04-06T08:08:18;4.53;;;1.48;;
3565;SDS011;1797;51.844;7.684;2023-04-06T08:10:46;2.38;;;2.17;;
3565;SDS011;1797;51.844;7.684;2023-04-06T08:13:12;0.73;;;0.73;;
3565;SDS011;1797;51.844;7.684;2023-04-06T08:15:37;4.80;;;1.23;;
3565;SDS011;1797;51.844;7.684;2023-04-06T08:18:03;1.50;;;1.40;;
3565;SDS011;1797;51.844;7.684;2023-04-06T08:20:29;2.95;;;1.70;;
3565;SDS011;1797;51.844;7.684;2023-04-06T08:22:55;3.83;;;2.83;;
3565;SDS011;1797;51.844;7.684;2023-04-06T08:25:20;2.72;;;2.00;;
3565;SDS011;1797;51.844;7.684;2023-04-06T08:27:46;1.90;;;1.80;;
3565;SDS011;1797;51.844;7.684;2023-04-06T08:30:12;2.23;;;1.60;;
3565;SDS011;1797;51.844;7.684;2023-04-06T08:32:37;2.63;;;1.52;;
3565;SDS011;1797;51.844;7.684;2023-04-06T08:35:03;4.18;;;2.30;;
3565;SDS011;1797;51.844;7.684;2023-04-06T08:37:29;1.60;;;1.38;;
3565;SDS011;1797;51.844;7.684;2023-04-06T08:39:54;2.20;;;2.10;;
3565;SDS011;1797;51.844;7.684;2023-04-06T08:42:20;2.67;;;1.67;;
3565;SDS011;1797;51.844;7.684;2023-04-06T08:44:49;5.30;;;2.10;;
3565;SDS011;1797;51.844;7.684;2023-04-06T08:47:17;5.22;;;2.60;;
3565;SDS011;1797;51.844;7.684;2023-04-06T08:49:43;3.80;;;1.80;;
3565;SDS011;1797;51.844;7.684;2023-04-06T08:52:10;1.70;;;1.40;;
3565;SDS011;1797;51.844;7.684;2023-04-06T08:54:37;3.53;;;1.85;;
3565;SDS011;1797;51.844;7.684;2023-04-06T08:57:04;6.60;;;2.08;;
3565;SDS011;1797;51.844;7.684;2023-04-06T08:59:31;3.10;;;2.00;;
3565;SDS011;1797;51.844;7.684;2023-04-06T09:01:57;9.40;;;3.30;;
3565;SDS011;1797;51.844;7.684;2023-04-06T09:04:26;2.78;;;2.58;;
3565;SDS011;1797;51.844;7.684;2023-04-06T09:06:52;3.83;;;1.73;;
3565;SDS011;1797;51.844;7.684;2023-04-06T09:09:18;5.70;;;2.40;;
3565;SDS011;1797;51.844;7.684;2023-04-06T09:11:48;6.15;;;2.58;;
3565;SDS011;1797;51.844;7.684;2023-04-06T09:14:15;5.43;;;2.53;;
3565;SDS011;1797;51.844;7.684;2023-04-06T09:16:42;3.45;;;1.63;;
3565;SDS011;1797;51.844;7.684;2023-04-06T09:19:10;5.30;;;2.40;;
3565;SDS011;1797;51.844;7.684;2023-04-06T09:21:36;3.65;;;2.05;;
3565;SDS011;1797;51.844;7.684;2023-04-06T09:24:05;3.05;;;1.80;;
3565;SDS011;1797;51.844;7.684;2023-04-06T09:26:31;3.15;;;2.67;;
3565;SDS011;1797;51.844;7.684;2023-04-06T09:28:58;7.32;;;2.53;;
3565;SDS011;1797;51.844;7.684;2023-04-06T09:31:29;4.18;;;3.00;;
3565;SDS011;1797;51.844;7.684;2023-04-06T09:34:05;4.80;;;1.52;;
3565;SDS011;1797;51.844;7.684;2023-04-06T09:36:34;4.27;;;1.70;;
3565;SDS011;1797;51.844;7.684;2023-04-06T09:39:06;2.88;;;2.55;;
3565;SDS011;1797;51.844;7.684;2023-04-06T09:41:33;3.70;;;2.10;;
3565;SDS011;1797;51.844;7.684;2023-04-06T09:46:38;4.60;;;3.40;;
3565;SDS011;1797;51.844;7.684;2023-04-06T09:49:05;4.13;;;2.90;;
3565;SDS011;1797;51.844;7.684;2023-04-06T09:51:39;7.50;;;3.10;;
3565;SDS011;1797;51.844;7.684;2023-04-06T09:54:18;2.20;;;1.93;;
3565;SDS011;1797;51.844;7.684;2023-04-06T09:56:47;3.55;;;1.80;;
3565;SDS011;1797;51.844;7.684;2023-04-06T09:59:37;7.10;;;3.35;;
3565;SDS011;1797;51.844;7.684;2023-04-06T10:02:13;4.85;;;2.88;;
3565;SDS011;1797;51.844;7.684;2023-04-06T10:04:53;3.88;;;2.75;;
3565;SDS011;1797;51.844;7.684;2023-04-06T10:07:40;3.92;;;2.33;;
3565;SDS011;1797;51.844;7.684;2023-04-06T10:10:07;8.00;;;2.75;;
3565;SDS011;1797;51.844;7.684;2023-04-06T10:12:35;5.47;;;2.97;;
3565;SDS011;1797;51.844;7.684;2023-04-06T10:15:03;4.53;;;2.28;;
3565;SDS011;1797;51.844;7.684;2023-04-06T10:17:28;10.10;;;4.63;;
3565;SDS011;1797;51.844;7.684;2023-04-06T10:20:07;4.93;;;2.67;;
3565;SDS011;1797;51.844;7.684;2023-04-06T10:22:40;6.93;;;2.90;;
3565;SDS011;1797;51.844;7.684;2023-04-06T10:25:17;9.65;;;3.78;;
3565;SDS011;1797;51.844;7.684;2023-04-06T10:27:58;8.55;;;3.92;;
3565;SDS011;1797;51.844;7.684;2023-04-06T10:30:24;6.30;;;3.92;;
3565;SDS011;1797;51.844;7.684;2023-04-06T10:32:51;4.03;;;2.47;;
3565;SDS011;1797;51.844;7.684;2023-04-06T10:35:16;3.30;;;2.27;;
3565;SDS011;1797;51.844;7.684;2023-04-06T10:37:52;5.30;;;3.10;;
3565;SDS011;1797;51.844;7.684;2023-04-06T10:40:25;3.97;;;2.90;;
3565;SDS011;1797;51.844;7.684;2023-04-06T10:42:55;6.50;;;3.40;;
3565;SDS011;1797;51.844;7.684;2023-04-06T10:45:31;5.65;;;4.50;;
3565;SDS011;1797;51.844;7.684;2023-04-06T10:47:57;4.33;;;2.63;;
3565;SDS011;1797;51.844;7.684;2023-04-06T10:50:23;7.00;;;3.10;;
3565;SDS011;1797;51.844;7.684;2023-04-06T10:52:59;6.03;;;3.07;;
3565;SDS011;1797;51.844;7.684;2023-04-06T10:55:26;4.95;;;3.13;;
3565;SDS011;1797;51.844;7.684;2023-04-06T10:57:53;6.15;;;3.40;;
3565;SDS011;1797;51.844;7.684;2023-04-06T11:00:19;3.60;;;2.13;;
3565;SDS011;1797;51.844;7.684;2023-04-06T11:02:45;13.50;;;2.90;;
3565;SDS011;1797;51.844;7.684;2023-04-06T11:05:11;5.20;;;4.60;;
3565;SDS011;1797;51.844;7.684;2023-04-06T11:07:40;3.80;;;2.50;;
3565;SDS011;1797;51.844;7.684;2023-04-06T11:10:07;7.80;;;3.83;;
3565;SDS011;1797;51.844;7.684;2023-04-06T11:12:33;3.50;;;2.50;;
3565;SDS011;1797;51.844;7.684;2023-04-06T11:15:00;4.00;;;3.70;;
3565;SDS011;1797;51.844;7.684;2023-04-06T11:17:31;8.40;;;4.80;;
3565;SDS011;1797;51.844;7.684;2023-04-06T11:19:58;7.88;;;5.07;;
3565;SDS011;1797;51.844;7.684;2023-04-06T11:22:25;4.55;;;3.20;;
3565;SDS011;1797;51.844;7.684;2023-04-06T11:24:51;2.33;;;2.00;;
3565;SDS011;1797;51.844;7.684;2023-04-06T11:27:17;4.07;;;3.42;;
3565;SDS011;1797;51.844;7.684;2023-04-06T11:29:44;5.20;;;3.53;;
3565;SDS011;1797;51.844;7.684;2023-04-06T11:32:21;6.03;;;3.65;;
3565;SDS011;1797;51.844;7.684;2023-04-06T11:34:47;7.97;;;5.03;;
3565;SDS011;1797;51.844;7.684;2023-04-06T11:37:13;6.53;;;3.05;;
3565;SDS011;1797;51.844;7.684;2023-04-06T11:39:46;6.75;;;2.58;;
3565;SDS011;1797;51.844;7.684;2023-04-06T11:42:22;7.05;;;3.15;;
3565;SDS011;1797;51.844;7.684;2023-04-06T11:44:49;4.03;;;2.20;;
3565;SDS011;1797;51.844;7.684;2023-04-06T11:47:17;5.90;;;2.20;;
3565;SDS011;1797;51.844;7.684;2023-04-06T11:49:44;9.93;;;2.78;;
3565;SDS011;1797;51.844;7.684;2023-04-06T11:54:46;4.50;;;2.50;;
3565;SDS011;1797;51.844;7.684;2023-04-06T11:57:13;11.55;;;3.92;;
3565;SDS011;1797;51.844;7.684;2023-04-06T11:59:39;9.88;;;3.05;;
3565;SDS011;1797;51.844;7.684;2023-04-06T12:02:05;7.30;;;2.67;;
3565;SDS011;1797;51.844;7.684;2023-04-06T12:04:31;5.80;;;2.30;;
3565;SDS011;1797;51.844;7.684;2023-04-06T12:06:57;5.75;;;2.25;;
3565;SDS011;1797;51.844;7.684;2023-04-06T12:09:23;4.63;;;3.22;;
3565;SDS011;1797;51.844;7.684;2023-04-06T12:11:49;6.47;;;2.90;;
3565;SDS011;1797;51.844;7.684;2023-04-06T12:14:15;4.88;;;2.35;;
3565;SDS011;1797;51.844;7.684;2023-04-06T12:16:41;7.38;;;2.15;;
3565;SDS011;1797;51.844;7.684;2023-04-06T12:19:07;5.37;;;2.70;;
3565;SDS011;1797;51.844;7.684;2023-04-06T12:21:35;6.77;;;3.20;;
3565;SDS011;1797;51.844;7.684;2023-04-06T12:24:04;6.05;;;2.60;;
3565;SDS011;1797;51.844;7.684;2023-04-06T12:26:30;4.60;;;1.90;;
3565;SDS011;1797;51.844;7.684;2023-04-06T12:28:56;4.60;;;2.63;;
3565;SDS011;1797;51.844;7.684;2023-04-06T12:31:27;5.03;;;1.73;;
3565;SDS011;1797;51.844;7.684;2023-04-06T12:33:53;4.90;;;2.30;;
3565;SDS011;1797;51.844;7.684;2023-04-06T12:36:19;2.60;;;1.57;;
3565;SDS011;1797;51.844;7.684;2023-04-06T12:38:49;5.05;;;2.70;;
3565;SDS011;1797;51.844;7.684;2023-04-06T12:41:15;5.90;;;2.20;;
3565;SDS011;1797;51.844;7.684;2023-04-06T12:43:42;5.55;;;3.30;;
3565;SDS011;1797;51.844;7.684;2023-04-06T12:46:09;2.88;;;1.70;;
3565;SDS011;1797;51.844;7.684;2023-04-06T12:48:35;2.17;;;1.35;;
3565;SDS011;1797;51.844;7.684;2023-04-06T12:51:02;2.03;;;1.80;;
3565;SDS011;1797;51.844;7.684;2023-04-06T12:53:28;3.70;;;2.40;;
3565;SDS011;1797;51.844;7.684;2023-04-06T12:55:54;5.63;;;2.43;;
3565;SDS011;1797;51.844;7.684;2023-04-06T12:58:20;6.00;;;2.20;;
3565;SDS011;1797;51.844;7.684;2023-04-06T13:00:47;2.15;;;1.95;;
3565;SDS011;1797;51.844;7.684;2023-04-06T13:03:13;8.55;;;3.03;;
3565;SDS011;1797;51.844;7.684;2023-04-06T13:05:45;2.63;;;2.42;;
3565;SDS011;1797;51.844;7.684;2023-04-06T13:08:12;4.47;;;2.20;;
3565;SDS011;1797;51.844;7.684;2023-04-06T13:10:42;8.40;;;3.00;;
3565;SDS011;1797;51.844;7.684;2023-04-06T13:13:15;3.20;;;2.20;;
3565;SDS011;1797;51.844;7.684;2023-04-06T13:15:42;4.43;;;2.27;;
3565;SDS011;1797;51.844;7.684;2023-04-06T13:18:08;6.43;;;3.90;;
3565;SDS011;1797;51.844;7.684;2023-04-06T13:20:34;6.18;;;2.42;;
3565;SDS011;1797;51.844;7.684;2023-04-06T13:23:00;4.30;;;2.15;;
3565;SDS011;1797;51.844;7.684;2023-04-06T13:25:26;4.72;;;2.50;;
3565;SDS011;1797;51.844;7.684;2023-04-06T13:27:53;3.85;;;3.17;;
3565;SDS011;1797;51.844;7.684;2023-04-06T13:30:18;8.55;;;3.00;;
3565;SDS011;1797;51.844;7.684;2023-04-06T13:32:44;8.47;;;2.73;;
3565;SDS011;1797;51.844;7.684;2023-04-06T13:35:10;5.27;;;3.77;;
3565;SDS011;1797;51.844;7.684;2023-04-06T13:37:36;4.70;;;2.28;;
3565;SDS011;1797;51.844;7.684;2023-04-06T13:40:02;3.10;;;2.80;;
3565;SDS011;1797;51.844;7.684;2023-04-06T13:42:29;4.75;;;2.75;;
3565;SDS011;1797;51.844;7.684;2023-04-06T13:44:55;11.00;;;2.53;;
3565;SDS011;1797;51.844;7.684;2023-04-06T13:47:21;4.55;;;3.47;;
3565;SDS011;1797;51.844;7.684;2023-04-06T13:49:47;7.03;;;3.70;;
3565;SDS011;1797;51.844;7.684;2023-04-06T13:52:12;7.00;;;2.60;;
3565;SDS011;1797;51.844;7.684;2023-04-06T13:54:38;5.10;;;3.13;;
3565;SDS011;1797;51.844;7.684;2023-04-06T13:57:04;6.57;;;3.67;;
3565;SDS011;1797;51.844;7.684;2023-04-06T13:59:33;5.70;;;2.92;;
3565;SDS011;1797;51.844;7.684;2023-04-06T14:02:00;7.78;;;3.33;;
3565;SDS011;1797;51.844;7.684;2023-04-06T14:04:26;5.55;;;2.75;;
3565;SDS011;1797;51.844;7.684;2023-04-06T14:06:52;4.13;;;2.47;;
3565;SDS011;1797;51.844;7.684;2023-04-06T14:09:18;8.00;;;3.50;;
3565;SDS011;1797;51.844;7.684;2023-04-06T14:11:43;3.88;;;2.92;;
3565;SDS011;1797;51.844;7.684;2023-04-06T14:14:09;4.60;;;3.05;;
3565;SDS011;1797;51.844;7.684;2023-04-06T14:16:35;7.55;;;2.90;;
3565;SDS011;1797;51.844;7.684;2023-04-06T14:19:00;6.70;;;3.53;;
3565;SDS011;1797;51.844;7.684;2023-04-06T14:21:26;8.48;;;3.10;;
3565;SDS011;1797;51.844;7.684;2023-04-06T14:23:52;7.45;;;3.20;;
3565;SDS011;1797;51.844;7.684;2023-04-06T14:26:17;7.40;;;3.45;;
3565;SDS011;1797;51.844;7.684;2023-04-06T14:28:44;4.68;;;2.85;;
3565;SDS011;1797;51.844;7.684;2023-04-06T14:31:14;3.75;;;3.08;;
3565;SDS011;1797;51.844;7.684;2023-04-06T14:33:41;5.80;;;3.80;;
3565;SDS011;1797;51.844;7.684;2023-04-06T14:36:07;4.60;;;3.10;;
3565;SDS011;1797;51.844;7.684;2023-04-06T14:38:34;5.00;;;1.92;;
3565;SDS011;1797;51.844;7.684;2023-04-06T14:41:00;3.38;;;2.08;;
3565;SDS011;1797;51.844;7.684;2023-04-06T14:43:26;3.17;;;1.90;;
3565;SDS011;1797;51.844;7.684;2023-04-06T14:45:52;6.93;;;2.75;;
3565;SDS011;1797;51.844;7.684;2023-04-06T14:48:17;7.20;;;3.53;;
3565;SDS011;1797;51.844;7.684;2023-04-06T14:50:53;5.57;;;3.10;;
3565;SDS011;1797;51.844;7.684;2023-04-06T14:53:21;4.70;;;2.30;;
3565;SDS011;1797;51.844;7.684;2023-04-06T14:55:47;3.03;;;1.90;;
3565;SDS011;1797;51.844;7.684;2023-04-06T14:58:16;8.00;;;2.22;;
3565;SDS011;1797;51.844;7.684;2023-04-06T15:00:42;2.60;;;2.40;;
3565;SDS011;1797;51.844;7.684;2023-04-06T15:03:07;4.57;;;2.17;;
3565;SDS011;1797;51.844;7.684;2023-04-06T15:05:33;3.17;;;2.87;;
3565;SDS011;1797;51.844;7.684;2023-04-06T15:07:59;2.67;;;2.45;;
3565;SDS011;1797;51.844;7.684;2023-04-06T15:10:25;3.77;;;3.30;;
3565;SDS011;1797;51.844;7.684;2023-04-06T15:12:51;7.07;;;3.47;;
3565;SDS011;1797;51.844;7.684;2023-04-06T15:15:16;4.10;;;2.20;;
3565;SDS011;1797;51.844;7.684;2023-04-06T15:17:42;6.53;;;2.70;;